createdAt,value
2018-03-18T00:02:04.403Z,10.07
2018-03-18T00:04:31.916Z,9.95
2018-03-18T00:07:10.593Z,10.82
2018-03-18T00:09:38.088Z,9.93
2018-03-18T00:12:05.603Z,6.50
2018-03-18T00:14:33.188Z,9.75
2018-03-18T00:17:01.481Z,10.90
2018-03-18T00:19:29.761Z,10.77
2018-03-18T00:21:59.939Z,10.07
2018-03-18T00:24:27.950Z,10.07
2018-03-18T00:26:58.642Z,10.27
2018-03-18T00:29:28.937Z,9.63
2018-03-18T00:31:58.432Z,10.45
2018-03-18T00:34:40.448Z,9.55
2018-03-18T00:37:07.998Z,10.38
2018-03-18T00:39:35.569Z,10.23
2018-03-18T00:42:03.869Z,9.80
2018-03-18T00:44:32.141Z,11.73
2018-03-18T00:47:28.726Z,9.40
2018-03-18T00:49:58.905Z,8.70
2018-03-18T00:52:28.954Z,8.05
2018-03-18T00:54:57.927Z,11.45
2018-03-18T00:57:27.494Z,10.30
2018-03-18T00:59:56.685Z,12.15
2018-03-18T01:02:31.631Z,9.63
2018-03-18T01:04:59.697Z,11.02
2018-03-18T01:07:29.012Z,10.82
2018-03-18T01:09:59.289Z,9.98
2018-03-18T01:12:28.705Z,8.35
2018-03-18T01:14:58.049Z,10.60
2018-03-18T01:17:28.924Z,10.70
2018-03-18T01:19:59.058Z,11.00
2018-03-18T01:22:28.993Z,10.43
2018-03-18T01:24:58.630Z,10.77
2018-03-18T01:27:29.182Z,12.10
2018-03-18T01:29:58.341Z,11.05
2018-03-18T01:32:28.781Z,12.68
2018-03-18T01:34:59.110Z,9.95
2018-03-18T01:37:28.111Z,11.18
2018-03-18T01:39:59.100Z,11.88
2018-03-18T01:42:28.332Z,11.77
2018-03-18T01:44:59.106Z,12.13
2018-03-18T01:47:29.158Z,11.20
2018-03-18T01:49:59.125Z,11.45
2018-03-18T01:52:29.107Z,11.05
2018-03-18T01:54:59.130Z,11.23
2018-03-18T01:57:29.179Z,11.23
2018-03-18T01:59:58.313Z,11.02
2018-03-18T02:02:28.137Z,10.68
2018-03-18T02:04:57.294Z,10.30
2018-03-18T02:07:28.882Z,9.88
2018-03-18T02:09:58.872Z,12.23
2018-03-18T02:12:29.146Z,13.20
2018-03-18T02:14:58.818Z,10.93
2018-03-18T02:17:28.669Z,11.40
2018-03-18T02:19:58.677Z,10.95
2018-03-18T02:22:28.197Z,11.70
2018-03-18T02:24:58.181Z,10.05
2018-03-18T02:27:29.210Z,11.38
2018-03-18T02:29:58.332Z,10.38
2018-03-18T02:32:29.275Z,11.75
2018-03-18T02:34:59.316Z,11.85
2018-03-18T02:37:29.475Z,10.90
2018-03-18T02:39:59.461Z,11.52
2018-03-18T02:42:31.769Z,9.75
2018-03-18T02:45:00.056Z,10.13
2018-03-18T02:47:29.342Z,11.23
2018-03-18T02:49:59.404Z,10.63
2018-03-18T02:52:29.257Z,9.40
2018-03-18T02:54:59.391Z,11.07
2018-03-18T02:57:30.890Z,11.45
2018-03-18T02:59:59.448Z,10.43
2018-03-18T03:02:32.374Z,10.88
2018-03-18T03:05:02.293Z,12.07
2018-03-18T03:07:29.797Z,10.82
2018-03-18T03:09:59.542Z,11.07
2018-03-18T03:12:29.390Z,10.68
2018-03-18T03:14:59.194Z,7.68
2018-03-18T03:17:29.421Z,9.98
2018-03-18T03:19:59.411Z,9.95
2018-03-18T03:22:29.529Z,11.02
2018-03-18T03:24:59.687Z,10.95
2018-03-18T03:27:37.410Z,9.52
2018-03-18T03:30:05.495Z,9.93
2018-03-18T03:32:33.784Z,10.70
2018-03-18T03:35:02.066Z,10.73
2018-03-18T03:37:30.355Z,8.20
2018-03-18T03:39:59.698Z,8.82
2018-03-18T03:42:29.873Z,10.00
2018-03-18T03:44:59.553Z,9.32
2018-03-18T03:47:29.898Z,8.93
2018-03-18T03:50:05.734Z,9.45
2018-03-18T03:52:33.358Z,8.02
2018-03-18T03:55:01.644Z,9.45
2018-03-18T03:57:29.946Z,8.30
2018-03-18T04:00:03.862Z,9.23
2018-03-18T04:02:31.381Z,9.18
2018-03-18T04:05:02.994Z,8.82
2018-03-18T04:07:30.512Z,9.25
2018-03-18T04:09:59.843Z,10.88
2018-03-18T04:12:29.900Z,9.73
2018-03-18T04:15:00.129Z,9.98
2018-03-18T04:17:29.745Z,9.00
2018-03-18T04:19:59.965Z,9.40
2018-03-18T04:22:29.880Z,9.95
2018-03-18T04:25:28.538Z,10.05
2018-03-18T04:27:59.396Z,9.00
2018-03-18T04:30:29.894Z,7.85
2018-03-18T04:32:59.832Z,10.27
2018-03-18T04:35:31.926Z,8.25
2018-03-18T04:38:01.989Z,9.90
2018-03-18T04:40:30.998Z,9.60
2018-03-18T04:43:00.189Z,9.23
2018-03-18T04:45:29.791Z,10.50
2018-03-18T04:48:00.176Z,9.88
2018-03-18T04:50:29.819Z,10.20
2018-03-18T04:53:08.484Z,11.57
2018-03-18T04:55:42.000Z,9.80
2018-03-18T04:58:09.665Z,8.43
2018-03-18T05:01:02.154Z,9.98
2018-03-18T05:03:29.709Z,8.77
2018-03-18T05:05:59.720Z,10.10
2018-03-18T05:08:29.134Z,9.68
2018-03-18T05:10:59.305Z,10.52
2018-03-18T05:13:29.161Z,9.40
2018-03-18T05:15:59.722Z,8.00
2018-03-18T05:18:29.216Z,8.60
2018-03-18T05:20:59.169Z,10.00
2018-03-18T05:23:32.057Z,10.60
2018-03-18T05:25:59.560Z,9.10
2018-03-18T05:29:10.043Z,8.77
2018-03-18T05:31:37.541Z,8.40
2018-03-18T05:34:05.063Z,9.85
2018-03-18T05:36:35.020Z,8.30
2018-03-18T05:39:02.538Z,9.05
2018-03-18T05:41:30.120Z,9.10
2018-03-18T05:43:59.257Z,8.65
2018-03-18T05:46:29.249Z,7.65
2018-03-18T05:48:59.438Z,9.55
2018-03-18T05:51:40.937Z,8.50
2018-03-18T05:54:08.553Z,7.68
2018-03-18T05:56:36.813Z,9.55
2018-03-18T05:59:04.312Z,9.25
2018-03-18T06:01:32.604Z,8.95
2018-03-18T06:04:00.916Z,9.73
2018-03-18T06:06:29.300Z,7.95
2018-03-18T06:08:59.453Z,9.10
2018-03-18T06:11:29.161Z,8.82
2018-03-18T06:13:59.113Z,6.35
2018-03-18T06:16:29.571Z,8.95
2018-03-18T06:18:59.168Z,9.75
2018-03-18T06:21:28.969Z,7.75
2018-03-18T06:23:59.376Z,8.82
2018-03-18T06:26:29.025Z,9.35
2018-03-18T06:28:59.375Z,8.68
2018-03-18T06:31:29.405Z,9.32
2018-03-18T06:33:58.614Z,8.85
2018-03-18T06:36:28.349Z,9.80
2018-03-18T06:38:56.929Z,7.95
2018-03-18T06:41:29.222Z,8.95
2018-03-18T06:43:58.427Z,10.30
2018-03-18T06:46:29.217Z,8.00
2018-03-18T06:48:59.199Z,9.60
2018-03-18T06:51:29.014Z,9.07
2018-03-18T06:53:57.535Z,10.80
2018-03-18T06:56:38.391Z,10.30
2018-03-18T06:59:06.145Z,8.32
2018-03-18T07:01:33.668Z,8.80
2018-03-18T07:04:01.173Z,9.38
2018-03-18T07:06:29.438Z,9.52
2018-03-18T07:08:57.373Z,9.13
2018-03-18T07:11:28.550Z,8.43
2018-03-18T07:13:58.594Z,7.75
2018-03-18T07:16:28.619Z,9.63
2018-03-18T07:18:57.455Z,7.22
2018-03-18T07:21:29.314Z,9.13
2018-03-18T07:23:59.261Z,9.25
2018-03-18T07:26:29.217Z,9.82
2018-03-18T07:28:59.086Z,9.20
2018-03-18T07:31:29.358Z,9.20
2018-03-18T07:34:02.147Z,8.95
2018-03-18T07:36:33.128Z,8.43
2018-03-18T07:39:00.642Z,9.48
2018-03-18T07:41:33.426Z,10.35
2018-03-18T07:44:15.549Z,8.90
2018-03-18T07:46:46.517Z,7.50
2018-03-18T07:49:16.364Z,8.80
2018-03-18T07:51:46.652Z,10.00
2018-03-18T07:54:14.937Z,8.90
2018-03-18T07:56:46.195Z,8.23
2018-03-18T07:59:14.752Z,9.77
2018-03-18T08:01:45.965Z,9.95
2018-03-18T08:04:16.266Z,9.20
2018-03-18T08:06:46.486Z,9.35
2018-03-18T08:09:16.536Z,9.55
2018-03-18T08:11:44.302Z,9.75
2018-03-18T08:14:16.513Z,9.00
2018-03-18T08:16:46.398Z,8.70
2018-03-18T08:19:16.729Z,9.23
2018-03-18T08:21:46.786Z,9.63
2018-03-18T08:24:16.482Z,10.45
2018-03-18T08:26:46.511Z,10.05
2018-03-18T08:29:18.410Z,10.25
2018-03-18T08:31:46.692Z,10.10
2018-03-18T08:34:15.595Z,10.30
2018-03-18T08:36:52.060Z,10.20
2018-03-18T08:39:19.581Z,9.10
2018-03-18T08:41:47.893Z,10.95
2018-03-18T08:44:16.610Z,9.90
2018-03-18T08:46:46.821Z,10.50
2018-03-18T08:49:16.569Z,10.82
2018-03-18T08:51:46.549Z,10.40
2018-03-18T08:54:16.402Z,10.68
2018-03-18T08:56:44.697Z,10.25
2018-03-18T08:59:13.561Z,11.40
2018-03-18T09:02:14.268Z,10.70
2018-03-18T09:04:45.908Z,9.18
2018-03-18T09:07:16.397Z,9.48
2018-03-18T09:09:46.278Z,10.60
2018-03-18T09:12:16.569Z,12.02
2018-03-18T09:14:46.593Z,11.13
2018-03-18T09:17:16.890Z,10.50
2018-03-18T09:19:46.770Z,10.87
2018-03-18T09:22:16.637Z,11.10
2018-03-18T09:24:46.645Z,9.50
2018-03-18T09:27:16.853Z,9.53
2018-03-18T09:29:44.672Z,10.00
2018-03-18T09:32:14.129Z,10.20
2018-03-18T09:34:46.498Z,10.90
2018-03-18T09:37:16.447Z,10.83
2018-03-18T09:39:46.493Z,9.50
2018-03-18T09:42:16.614Z,10.33
2018-03-18T09:44:46.513Z,10.27
2018-03-18T09:47:14.804Z,10.43
2018-03-18T09:49:46.705Z,10.60
2018-03-18T09:52:16.545Z,10.33
2018-03-18T09:54:46.474Z,9.80
2018-03-18T09:57:14.072Z,9.50
2018-03-18T09:59:56.613Z,10.03
2018-03-18T10:02:24.210Z,9.40
2018-03-18T10:04:51.721Z,10.30
2018-03-18T10:07:19.241Z,9.10
2018-03-18T10:09:47.544Z,10.50
2018-03-18T10:12:16.912Z,10.13
2018-03-18T10:14:46.734Z,10.17
2018-03-18T10:17:16.694Z,10.00
2018-03-18T10:19:46.765Z,10.03
2018-03-18T10:22:16.672Z,8.80
2018-03-18T10:24:45.692Z,8.07
2018-03-18T10:27:15.369Z,9.97
2018-03-18T10:29:45.246Z,9.27
2018-03-18T10:32:15.733Z,9.50
2018-03-18T10:34:45.305Z,8.87
2018-03-18T10:37:23.484Z,9.20
2018-03-18T10:39:50.977Z,9.60
2018-03-18T10:42:19.261Z,9.43
2018-03-18T10:44:47.558Z,8.40
2018-03-18T10:47:15.863Z,9.60
2018-03-18T10:49:45.441Z,7.40
2018-03-18T10:52:14.174Z,8.03
2018-03-18T10:54:43.198Z,7.37
2018-03-18T10:57:12.376Z,7.83
2018-03-18T10:59:41.419Z,8.87
2018-03-18T11:02:11.504Z,8.77
2018-03-18T11:04:42.888Z,9.03
2018-03-18T11:07:22.518Z,8.57
2018-03-18T11:09:50.017Z,9.37
2018-03-18T11:12:17.530Z,8.43
2018-03-18T11:14:45.066Z,7.70
2018-03-18T11:17:13.406Z,6.87
2018-03-18T11:19:43.684Z,7.93
2018-03-18T11:22:13.879Z,8.50
2018-03-18T11:24:43.338Z,6.00
2018-03-18T11:27:21.246Z,7.70
2018-03-18T11:29:49.510Z,8.13
2018-03-18T11:32:17.097Z,7.60
2018-03-18T11:34:44.983Z,8.23
2018-03-18T11:37:24.194Z,7.37
2018-03-18T11:39:51.690Z,7.93
2018-03-18T11:42:19.953Z,8.83
2018-03-18T11:44:47.529Z,7.90
2018-03-18T11:47:15.034Z,7.50
2018-03-18T11:49:43.913Z,7.50
2018-03-18T11:52:13.174Z,6.77
2018-03-18T11:54:40.970Z,8.67
2018-03-18T11:57:11.265Z,7.07
2018-03-18T11:59:41.579Z,8.33
2018-03-18T12:02:12.398Z,7.33
2018-03-18T12:04:40.775Z,8.30
2018-03-18T12:07:10.446Z,6.93
2018-03-18T12:09:38.990Z,6.80
2018-03-18T12:12:08.020Z,7.40
2018-03-18T12:14:37.517Z,7.80
2018-03-18T12:17:06.778Z,7.63
2018-03-18T12:19:39.137Z,7.90
2018-03-18T12:22:19.282Z,7.37
2018-03-18T12:24:48.522Z,7.20
2018-03-18T12:27:16.018Z,7.30
2018-03-18T12:29:45.054Z,6.87
2018-03-18T12:32:16.799Z,7.27
2018-03-18T12:34:46.985Z,7.07
2018-03-18T12:37:15.755Z,6.73
2018-03-18T12:39:55.388Z,6.63
2018-03-18T12:42:39.306Z,7.40
2018-03-18T12:45:25.642Z,7.20
2018-03-18T12:47:54.352Z,7.37
2018-03-18T12:50:21.867Z,7.60
2018-03-18T12:52:49.361Z,6.30
2018-03-18T12:55:16.889Z,7.87
2018-03-18T12:57:45.887Z,7.20
2018-03-18T13:00:16.033Z,7.60
2018-03-18T13:02:46.376Z,6.63
2018-03-18T13:05:16.131Z,7.47
2018-03-18T13:07:46.763Z,6.90
2018-03-18T13:10:16.970Z,6.80
2018-03-18T13:12:50.316Z,7.73
2018-03-18T13:15:18.257Z,7.17
2018-03-18T13:17:46.549Z,6.70
2018-03-18T13:20:20.878Z,6.70
2018-03-18T13:22:49.174Z,7.20
2018-03-18T13:25:24.573Z,6.60
2018-03-18T13:27:52.078Z,6.97
2018-03-18T13:30:19.573Z,7.13
2018-03-18T13:32:47.246Z,6.13
2018-03-18T13:35:16.932Z,6.47
2018-03-18T13:37:46.833Z,6.37
2018-03-18T13:40:17.433Z,6.03
2018-03-18T13:42:48.475Z,6.70
2018-03-18T13:45:18.970Z,4.93
2018-03-18T13:47:48.213Z,6.37
2018-03-18T13:50:18.901Z,6.57
2018-03-18T13:52:48.171Z,6.33
2018-03-18T13:55:27.411Z,7.20
2018-03-18T13:57:54.928Z,6.43
2018-03-18T14:00:22.437Z,6.43
2018-03-18T14:02:49.947Z,5.93
2018-03-18T14:05:17.440Z,7.03
2018-03-18T14:07:46.562Z,6.70
2018-03-18T14:10:16.014Z,6.43
2018-03-18T14:12:45.513Z,6.20
2018-03-18T14:15:16.618Z,6.40
2018-03-18T14:17:54.890Z,6.27
2018-03-18T14:20:23.156Z,5.10
2018-03-18T14:22:50.669Z,6.10
2018-03-18T14:25:18.165Z,6.90
2018-03-18T14:27:47.290Z,6.70
2018-03-18T14:30:16.522Z,6.43
2018-03-18T14:32:47.189Z,6.17
2018-03-18T14:35:16.145Z,6.07
2018-03-18T14:37:46.329Z,6.63
2018-03-18T14:40:16.021Z,6.10
2018-03-18T14:42:44.866Z,6.40
2018-03-18T14:45:15.816Z,5.60
2018-03-18T14:47:45.517Z,5.87
2018-03-18T14:50:15.600Z,5.80
2018-03-18T14:52:46.030Z,6.17
2018-03-18T14:55:24.882Z,6.33
2018-03-18T14:57:52.377Z,7.00
2018-03-18T15:00:19.893Z,5.67
2018-03-18T15:02:47.385Z,6.43
2018-03-18T15:05:16.736Z,5.67
2018-03-18T15:07:46.061Z,7.40
2018-03-18T15:10:21.232Z,6.17
2018-03-18T15:12:48.726Z,6.53
2018-03-18T15:15:17.074Z,6.03
2018-03-18T15:17:46.693Z,6.27
2018-03-18T15:20:16.013Z,5.90
2018-03-18T15:22:46.455Z,6.33
2018-03-18T15:25:18.711Z,5.10
2018-03-18T15:27:46.718Z,5.70
2018-03-18T15:30:16.121Z,5.70
2018-03-18T15:32:44.829Z,5.50
2018-03-18T15:35:23.563Z,5.17
2018-03-18T15:37:51.822Z,5.60
2018-03-18T15:40:19.424Z,5.20
2018-03-18T15:42:48.046Z,5.20
2018-03-18T15:45:16.719Z,5.10
2018-03-18T15:47:47.078Z,5.17
2018-03-18T15:50:24.886Z,5.83
2018-03-18T15:52:52.385Z,4.90
2018-03-18T15:55:20.016Z,5.33
2018-03-18T15:57:48.273Z,6.07
2018-03-18T16:00:16.269Z,4.90
2018-03-18T16:02:45.418Z,5.47
2018-03-18T16:05:23.387Z,5.50
2018-03-18T16:07:50.883Z,5.70
2018-03-18T16:10:19.174Z,5.10
2018-03-18T16:12:48.189Z,5.03
2018-03-18T16:15:15.960Z,4.93
2018-03-18T16:17:44.603Z,5.13
2018-03-18T16:20:15.989Z,4.43
2018-03-18T16:22:44.030Z,5.00
2018-03-18T16:25:14.006Z,5.20
2018-03-18T16:27:43.967Z,4.03
2018-03-18T16:30:23.673Z,4.50
2018-03-18T16:32:51.148Z,5.90
2018-03-18T16:35:18.650Z,5.60
2018-03-18T16:37:46.953Z,4.90
2018-03-18T16:40:15.988Z,5.30
2018-03-18T16:42:45.159Z,5.80
2018-03-18T16:45:14.129Z,4.53
2018-03-18T16:47:43.074Z,4.50
2018-03-18T16:50:11.919Z,5.70
2018-03-18T16:52:41.569Z,5.37
2018-03-18T16:55:21.289Z,5.23
2018-03-18T16:57:48.797Z,5.17
2018-03-18T17:00:16.294Z,4.70
2018-03-18T17:02:45.737Z,5.07
2018-03-18T17:05:14.847Z,4.57
2018-03-18T17:07:43.654Z,5.87
2018-03-18T17:10:12.887Z,4.90
2018-03-18T17:12:41.806Z,5.70
2018-03-18T17:15:20.127Z,4.83
2018-03-18T17:17:47.741Z,3.60
2018-03-18T17:20:16.117Z,4.53
2018-03-18T17:22:43.897Z,4.37
2018-03-18T17:25:13.079Z,4.70
2018-03-18T17:27:42.066Z,5.03
2018-03-18T17:30:12.551Z,3.93
2018-03-18T17:32:51.379Z,4.10
2018-03-18T17:35:18.973Z,4.40
2018-03-18T17:37:47.594Z,4.20
2018-03-18T17:40:15.245Z,5.00
2018-03-18T17:42:43.770Z,4.40
2018-03-18T17:45:32.673Z,3.92
2018-03-18T17:48:22.058Z,5.87
2018-03-18T17:51:01.433Z,3.70
2018-03-18T17:53:42.282Z,4.25
2018-03-18T17:56:21.793Z,4.30
2018-03-18T17:58:50.177Z,4.60
2018-03-18T18:01:18.469Z,4.00
2018-03-18T18:03:46.250Z,4.20
2018-03-18T18:06:14.912Z,4.72
2018-03-18T18:08:42.600Z,3.83
2018-03-18T18:11:13.431Z,4.12
2018-03-18T18:13:41.163Z,3.78
2018-03-18T18:16:11.458Z,5.37
2018-03-18T18:18:40.480Z,4.97
2018-03-18T18:21:09.575Z,4.18
2018-03-18T18:23:38.117Z,4.70
2018-03-18T18:26:06.713Z,3.95
2018-03-18T18:28:34.432Z,4.05
2018-03-18T18:31:02.044Z,4.37
2018-03-18T18:33:29.883Z,4.40
2018-03-18T18:35:57.766Z,4.60
2018-03-18T18:38:25.385Z,3.85
2018-03-18T18:40:52.959Z,4.12
2018-03-18T18:43:20.572Z,3.97
2018-03-18T18:45:47.992Z,4.00
2018-03-18T18:48:15.558Z,4.78
2018-03-18T18:50:44.144Z,4.20
2018-03-18T18:53:12.872Z,4.70
2018-03-18T18:55:42.812Z,4.07
2018-03-18T18:58:12.828Z,4.85
2018-03-18T19:00:52.593Z,4.68
2018-03-18T19:03:20.149Z,5.05
2018-03-18T19:05:49.476Z,5.12
2018-03-18T19:08:16.994Z,4.80
2018-03-18T19:10:45.305Z,4.12
2018-03-18T19:13:13.577Z,4.35
2018-03-18T19:15:41.106Z,3.65
2018-03-18T19:18:08.606Z,4.00
2018-03-18T19:20:36.140Z,4.62
2018-03-18T19:23:03.944Z,3.97
2018-03-18T19:25:32.113Z,4.50
2018-03-18T19:28:00.153Z,3.60
2018-03-18T19:30:29.716Z,4.53
2018-03-18T19:32:58.802Z,3.45
2018-03-18T19:35:26.875Z,3.78
2018-03-18T19:37:55.657Z,4.32
2018-03-18T19:40:23.209Z,3.58
2018-03-18T19:42:50.913Z,4.22
2018-03-18T19:45:18.514Z,4.22
2018-03-18T19:47:46.036Z,5.20
2018-03-18T19:50:13.645Z,3.92
2018-03-18T19:52:41.925Z,3.75
2018-03-18T19:55:10.210Z,5.10
2018-03-18T19:57:38.020Z,3.53
2018-03-18T20:00:07.225Z,4.07
2018-03-18T20:02:36.856Z,4.40
2018-03-18T20:05:06.161Z,3.47
2018-03-18T20:07:35.677Z,4.28
2018-03-18T20:10:07.925Z,3.55
2018-03-18T20:12:36.973Z,4.05
2018-03-18T20:15:07.233Z,3.33
2018-03-18T20:17:37.222Z,4.55
2018-03-18T20:20:07.565Z,3.90
2018-03-18T20:22:37.887Z,3.70
2018-03-18T20:25:08.209Z,3.83
2018-03-18T20:27:40.357Z,3.90
2018-03-18T20:30:08.722Z,3.37
2018-03-18T20:32:38.266Z,3.75
2018-03-18T20:35:07.197Z,4.00
2018-03-18T20:37:36.713Z,4.50
2018-03-18T20:40:06.489Z,4.37
2018-03-18T20:42:36.817Z,3.90
2018-03-18T20:45:07.141Z,3.50
2018-03-18T20:47:37.308Z,3.70
2018-03-18T20:50:07.753Z,3.90
2018-03-18T20:52:45.774Z,3.53
2018-03-18T20:55:13.293Z,3.80
2018-03-18T20:57:40.786Z,3.55
2018-03-18T21:00:08.484Z,3.22
2018-03-18T21:02:37.597Z,3.40
2018-03-18T21:05:07.218Z,4.10
2018-03-18T21:07:36.438Z,3.08
2018-03-18T21:10:14.254Z,4.10
2018-03-18T21:12:41.745Z,2.92
2018-03-18T21:15:09.257Z,3.65
2018-03-18T21:17:41.210Z,3.40
2018-03-18T21:20:09.488Z,4.15
2018-03-18T21:22:40.407Z,4.40
2018-03-18T21:25:11.915Z,3.17
2018-03-18T21:27:40.491Z,3.28
2018-03-18T21:30:08.933Z,3.65
2018-03-18T21:32:38.048Z,3.30
2018-03-18T21:35:17.449Z,3.58
2018-03-18T21:37:44.953Z,3.50
2018-03-18T21:40:12.694Z,4.72
2018-03-18T21:42:40.974Z,3.75
2018-03-18T21:45:10.367Z,3.50
2018-03-18T21:47:39.296Z,3.70
2018-03-18T21:50:07.879Z,3.95
2018-03-18T21:52:37.261Z,3.42
2018-03-18T21:55:17.048Z,4.12
2018-03-18T21:57:46.110Z,3.50
2018-03-18T22:00:24.957Z,3.95
2018-03-18T22:02:53.256Z,4.10
2018-03-18T22:05:21.522Z,3.70
2018-03-18T22:07:49.046Z,3.50
2018-03-18T22:10:16.544Z,3.78
2018-03-18T22:12:44.053Z,2.90
2018-03-18T22:15:12.351Z,3.42
2018-03-18T22:17:40.625Z,4.47
2018-03-18T22:20:08.884Z,3.50
2018-03-18T22:22:36.413Z,3.85
2018-03-18T22:25:03.922Z,3.90
2018-03-18T22:27:41.525Z,4.32
2018-03-18T22:30:09.020Z,3.53
2018-03-18T22:32:36.609Z,3.60
2018-03-18T22:35:05.003Z,3.47
2018-03-18T22:37:34.955Z,3.65
2018-03-18T22:40:03.992Z,3.90
2018-03-18T22:42:31.913Z,4.18
2018-03-18T22:45:00.512Z,4.65
2018-03-18T22:47:29.445Z,4.45
2018-03-18T22:49:59.337Z,3.65
2018-03-18T22:52:27.554Z,4.62
2018-03-18T22:54:57.589Z,3.60
2018-03-18T22:57:30.244Z,4.00
2018-03-18T23:00:01.194Z,4.10
2018-03-18T23:02:29.709Z,3.90
2018-03-18T23:05:02.041Z,3.45
2018-03-18T23:07:30.533Z,4.45
2018-03-18T23:10:00.430Z,4.18
2018-03-18T23:12:31.048Z,5.32
2018-03-18T23:15:01.123Z,4.60
2018-03-18T23:17:40.929Z,4.40
2018-03-18T23:20:09.656Z,3.97
2018-03-18T23:22:41.598Z,3.45
2018-03-18T23:25:14.453Z,4.40
2018-03-18T23:27:47.333Z,4.50
2018-03-18T23:30:16.618Z,4.70
2018-03-18T23:32:47.002Z,4.12
2018-03-18T23:35:17.386Z,4.55
2018-03-18T23:37:46.326Z,3.65
2018-03-18T23:40:16.295Z,4.68
2018-03-18T23:42:44.262Z,4.65
2018-03-18T23:45:13.638Z,4.30
2018-03-18T23:47:53.029Z,4.62
2018-03-18T23:50:20.549Z,4.25
2018-03-18T23:52:48.950Z,4.43
2018-03-18T23:55:18.878Z,4.22
2018-03-18T23:57:48.317Z,4.35
